Time;durP1;ratioP1;P1;durP2;ratioP2;P2;SDS_P1;SDS_P2;PMS_P1;PMS_P2;Temp;Humidity;BMP_temperature;BMP_pressure;BME280_temperature;BME280_humidity;BME280_pressure;Samples;Min_cycle;Max_cycle;Signal;HPM_P1;HPM_P2
2023/04/07 00:01:42;;;;;;;4.50;1.42;;;;;;;14.44;29.59;96476.28;4990715;28;1240071;-29
2023/04/07 00:04:07;;;;;;;3.05;1.77;;;;;;;14.37;29.30;96469.09;5034278;28;20038;-29
2023/04/07 00:06:33;;;;;;;3.13;1.95;;;;;;;14.34;29.21;96478.19;5035266;28;20476;-29
2023/04/07 00:08:58;;;;;;;2.60;1.70;;;;;;;14.42;28.98;96473.25;5039913;28;20022;-29
2023/04/07 00:11:24;;;;;;;3.05;1.80;;;;;;;14.46;28.87;96467.66;5041046;28;20017;-29
2023/04/07 00:13:49;;;;;;;3.50;1.63;;;;;;;14.33;28.48;96475.94;5040654;28;20104;-30
2023/04/07 00:16:15;;;;;;;3.92;1.70;;;;;;;14.35;28.15;96474.25;5041386;28;20017;-29
2023/04/07 00:18:40;;;;;;;3.10;1.77;;;;;;;14.26;28.16;96470.72;5032582;28;20018;-30
2023/04/07 00:21:06;;;;;;;3.17;1.63;;;;;;;14.40;27.73;96469.44;5040768;28;20108;-29
2023/04/07 00:23:31;;;;;;;3.53;1.63;;;;;;;14.39;28.01;96479.56;5040724;28;20593;-30
2023/04/07 00:25:57;;;;;;;2.33;1.48;;;;;;;14.28;28.08;96476.50;5036003;28;20545;-31
2023/04/07 00:28:22;;;;;;;2.90;1.55;;;;;;;14.33;27.98;96473.97;5039067;28;20485;-29
2023/04/07 00:30:48;;;;;;;3.30;1.73;;;;;;;14.29;27.81;96478.78;5034006;28;20017;-30
2023/04/07 00:33:13;;;;;;;3.45;1.80;;;;;;;14.19;27.60;96468.28;5033593;28;20032;-30
2023/04/07 00:35:38;;;;;;;3.40;1.88;;;;;;;14.23;27.64;96466.94;5033837;28;20397;-29
2023/04/07 00:38:04;;;;;;;3.78;1.70;;;;;;;14.26;27.48;96463.31;5041426;28;20132;-30
2023/04/07 00:40:30;;;;;;;3.10;1.83;;;;;;;14.25;27.06;96458.31;5047067;28;20458;-30
2023/04/07 00:42:55;;;;;;;3.67;1.80;;;;;;;14.18;27.21;96458.59;5033381;28;20021;-31
2023/04/07 00:45:21;;;;;;;4.20;2.20;;;;;;;14.06;27.04;96462.16;5040459;28;20100;-29
2023/04/07 00:47:46;;;;;;;4.05;1.80;;;;;;;14.02;27.26;96454.88;5033894;28;20049;-30
2023/04/07 00:50:12;;;;;;;2.70;1.92;;;;;;;13.91;27.79;96457.25;5033699;28;20101;-29
2023/04/07 00:52:39;;;;;;;4.28;1.92;;;;;;;13.90;27.77;96463.91;5037325;28;20028;-29
2023/04/07 00:55:05;;;;;;;3.28;1.70;;;;;;;14.24;27.12;96459.50;5036574;28;20466;-30
2023/04/07 00:57:30;;;;;;;3.67;1.75;;;;;;;14.30;27.04;96461.22;5038026;28;20044;-29
2023/04/07 00:59:56;;;;;;;6.05;1.85;;;;;;;14.29;26.91;96459.69;5033160;28;20388;-30
2023/04/07 01:02:30;;;;;;;2.47;1.52;;;;;;;13.98;27.44;96456.97;5033624;28;20049;-30
2023/04/07 01:05:16;;;;;;;4.50;1.67;;;;;;;14.08;27.75;96460.53;5033620;28;20404;-29
2023/04/07 01:08:10;;;;;;;4.13;1.85;;;;;;;14.09;27.23;96459.31;5034028;28;20021;-30
2023/04/07 01:10:48;;;;;;;3.83;1.70;;;;;;;14.21;27.50;96463.16;5040861;28;20458;-30
2023/04/07 01:13:34;;;;;;;4.03;1.70;;;;;;;14.10;27.66;96454.59;5040498;28;20024;-30
2023/04/07 01:16:04;;;;;;;2.50;1.52;;;;;;;14.10;27.45;96451.88;5034031;28;20477;-30
2023/04/07 01:18:34;;;;;;;3.13;1.50;;;;;;;14.29;27.88;96453.47;5032811;28;20040;-30
2023/04/07 01:21:03;;;;;;;3.47;1.50;;;;;;;13.96;28.08;96453.97;5047135;28;20095;-30
2023/04/07 01:23:51;;;;;;;2.88;1.60;;;;;;;14.00;28.85;96460.03;5033279;28;20029;-29
2023/04/07 01:26:25;;;;;;;2.22;1.40;;;;;;;14.00;28.46;96454.56;5033360;28;20178;-29
2023/04/07 01:29:10;;;;;;;2.38;1.58;;;;;;;13.97;28.57;96455.44;5042095;28;20074;-29
2023/04/07 01:31:39;;;;;;;2.17;1.60;;;;;;;14.24;28.50;96452.09;5033123;28;20024;-30
2023/04/07 01:34:07;;;;;;;3.55;1.73;;;;;;;14.09;28.68;96456.59;5033443;28;20029;-29
2023/04/07 01:36:33;;;;;;;3.17;1.70;;;;;;;13.93;28.63;96452.13;5033306;28;20083;-29
2023/04/07 01:38:59;;;;;;;4.68;2.10;;;;;;;14.14;28.59;96450.53;5040265;28;20045;-29
2023/04/07 01:41:25;;;;;;;2.15;1.40;;;;;;;14.09;28.77;96444.91;5036537;28;20021;-29
2023/04/07 01:43:52;;;;;;;3.00;1.48;;;;;;;14.12;28.45;96444.00;5039507;28;20033;-30
2023/04/07 01:46:18;;;;;;;4.47;1.75;;;;;;;14.12;28.57;96446.72;5043769;28;20044;-29
2023/04/07 01:48:45;;;;;;;2.75;1.60;;;;;;;14.06;28.42;96445.81;5036693;28;20017;-30
2023/04/07 01:51:16;;;;;;;3.95;2.15;;;;;;;14.11;28.20;96454.16;5035515;28;20071;-29
2023/04/07 01:53:42;;;;;;;4.28;1.77;;;;;;;13.84;28.36;96452.09;5036633;28;20032;-29
2023/04/07 01:56:07;;;;;;;2.65;1.55;;;;;;;13.86;28.39;96446.91;5036663;28;20022;-30
2023/04/07 01:58:33;;;;;;;2.92;1.90;;;;;;;13.77;28.53;96446.88;5051344;28;20028;-29
2023/04/07 02:00:58;;;;;;;3.05;1.60;;;;;;;13.85;28.84;96434.50;5041820;28;20392;-30
2023/04/07 02:03:31;;;;;;;3.28;1.50;;;;;;;13.84;28.59;96443.16;5038036;28;20028;-29
2023/04/07 02:06:03;;;;;;;3.92;2.17;;;;;;;13.85;29.03;96441.91;5036227;28;20056;-29
2023/04/07 02:08:29;;;;;;;2.95;1.42;;;;;;;13.70;29.00;96435.50;5036761;28;20371;-29
2023/04/07 02:10:57;;;;;;;3.88;1.90;;;;;;;13.81;29.11;96439.34;5039968;28;20039;-31
2023/04/07 02:13:23;;;;;;;4.60;1.75;;;;;;;13.82;29.28;96432.69;5039343;28;20075;-29
2023/04/07 02:15:49;;;;;;;4.28;1.85;;;;;;;13.84;29.01;96434.97;5050983;28;20035;-30
2023/04/07 02:18:17;;;;;;;2.22;1.65;;;;;;;13.85;29.02;96437.22;5036170;28;20018;-29
2023/04/07 02:20:45;;;;;;;4.15;1.77;;;;;;;13.88;29.20;96436.34;5043163;28;20032;-29
2023/04/07 02:23:11;;;;;;;4.00;1.60;;;;;;;14.05;29.03;96431.41;5036086;28;20389;-31
2023/04/07 02:25:37;;;;;;;2.25;1.40;;;;;;;13.81;29.17;96435.84;5035691;28;20388;-29
2023/04/07 02:28:03;;;;;;;4.10;1.73;;;;;;;13.96;28.72;96437.59;5043532;28;20025;-29
2023/04/07 02:30:30;;;;;;;4.40;1.73;;;;;;;13.91;28.59;96435.44;5041536;28;20377;-30
2023/04/07 02:32:55;;;;;;;3.72;1.90;;;;;;;13.94;28.62;96433.78;5037326;28;20029;-31
2023/04/07 02:35:22;;;;;;;2.70;1.50;;;;;;;13.88;28.90;96441.03;5036170;28;20393;-29
2023/04/07 02:37:47;;;;;;;2.53;1.83;;;;;;;13.93;28.59;96438.50;5035894;28;20389;-29
2023/04/07 02:40:13;;;;;;;2.47;1.63;;;;;;;13.96;28.31;96439.56;5043358;28;20021;-29
2023/04/07 02:42:39;;;;;;;4.15;2.20;;;;;;;13.99;28.15;96433.97;5035838;28;20053;-29
2023/04/07 02:45:06;;;;;;;2.72;1.50;;;;;;;13.99;28.31;96444.09;5042706;28;20031;-29
2023/04/07 02:47:33;;;;;;;2.60;1.63;;;;;;;14.13;28.32;96442.78;5042899;28;20673;-29
2023/04/07 02:49:58;;;;;;;3.15;1.80;;;;;;;14.03;28.38;96431.88;5035699;28;20026;-29
2023/04/07 02:52:24;;;;;;;4.53;1.58;;;;;;;13.83;28.48;96425.28;5035821;28;20097;-29
2023/04/07 02:54:50;;;;;;;2.92;1.80;;;;;;;13.85;28.24;96431.78;5034153;28;20075;-29
2023/04/07 02:57:15;;;;;;;3.35;1.42;;;;;;;13.75;28.20;96432.19;5043225;28;20033;-30
2023/04/07 02:59:40;;;;;;;3.67;1.85;;;;;;;13.96;28.32;96431.38;5038411;28;20021;-30
2023/04/07 03:02:06;;;;;;;3.70;2.28;;;;;;;13.83;28.49;96434.22;5033483;28;20068;-29
2023/04/07 03:04:31;;;;;;;3.38;1.85;;;;;;;14.02;28.06;96429.59;5042468;28;20029;-30
2023/04/07 03:06:57;;;;;;;3.72;2.10;;;;;;;13.82;28.00;96429.97;5035228;28;20029;-30
2023/04/07 03:09:22;;;;;;;3.33;1.85;;;;;;;14.09;27.45;96437.50;5034693;28;20065;-31
2023/04/07 03:11:48;;;;;;;4.30;1.92;;;;;;;14.00;27.88;96434.72;5035559;28;20028;-29
2023/04/07 03:14:15;;;;;;;5.25;2.20;;;;;;;13.84;27.78;96429.50;5035478;28;20036;-29
2023/04/07 03:16:40;;;;;;;3.35;1.77;;;;;;;13.99;27.80;96427.75;5042247;28;20029;-29
2023/04/07 03:19:06;;;;;;;4.20;2.20;;;;;;;13.94;27.55;96428.34;5038984;28;20074;-30
2023/04/07 03:21:31;;;;;;;5.55;2.10;;;;;;;13.93;27.33;96427.59;5044629;28;20488;-30
2023/04/07 03:23:57;;;;;;;3.42;2.25;;;;;;;13.91;27.36;96424.53;5041805;28;20025;-29
2023/04/07 03:26:22;;;;;;;4.35;2.53;;;;;;;13.95;27.79;96430.63;5034935;28;20026;-30
2023/04/07 03:28:48;;;;;;;5.80;2.70;;;;;;;13.85;27.06;96426.31;5035164;28;20021;-29
2023/04/07 03:31:13;;;;;;;3.33;2.00;;;;;;;13.73;27.12;96429.88;5034805;28;20021;-29
2023/04/07 03:33:39;;;;;;;4.40;2.30;;;;;;;13.70;27.50;96441.72;5041763;28;20025;-29
2023/04/07 03:36:05;;;;;;;4.32;2.22;;;;;;;13.49;27.24;96437.78;5041841;28;20106;-30
2023/04/07 03:38:30;;;;;;;4.53;2.33;;;;;;;13.56;27.31;96434.06;5039606;28;20148;-29
2023/04/07 03:40:56;;;;;;;5.32;2.38;;;;;;;13.57;27.18;96430.13;5035682;28;20440;-30
2023/04/07 03:43:21;;;;;;;4.93;2.30;;;;;;;13.52;27.04;96426.00;5034453;28;20022;-30
2023/04/07 03:45:47;;;;;;;5.38;2.53;;;;;;;13.51;27.05;96426.44;5034582;28;20462;-29
2023/04/07 03:48:12;;;;;;;4.78;2.33;;;;;;;13.56;26.89;96429.38;5035451;28;20112;-31
2023/04/07 03:50:39;;;;;;;6.65;2.95;;;;;;;13.57;27.01;96424.69;5040661;28;20013;-29
2023/04/07 03:53:04;;;;;;;5.32;2.53;;;;;;;13.57;27.24;96417.25;5041300;28;20049;-31
2023/04/07 03:55:30;;;;;;;7.68;3.60;;;;;;;13.61;27.06;96414.38;5034898;28;20102;-29
2023/04/07 03:57:56;;;;;;;5.10;2.50;;;;;;;13.62;27.39;96419.41;5041614;28;20017;-31
2023/04/07 04:00:21;;;;;;;6.00;2.85;;;;;;;13.55;27.32;96413.47;5033449;28;20025;-29
2023/04/07 04:02:47;;;;;;;5.28;2.40;;;;;;;13.67;27.42;96415.34;5034124;28;20041;-30
2023/04/07 04:05:12;;;;;;;6.50;2.80;;;;;;;13.68;27.28;96416.88;5040569;28;20477;-29
2023/04/07 04:07:38;;;;;;;6.43;3.22;;;;;;;13.69;26.95;96412.94;5034543;28;20017;-30
2023/04/07 04:10:03;;;;;;;5.35;2.35;;;;;;;13.58;27.41;96420.75;5033910;28;20346;-29
2023/04/07 04:12:29;;;;;;;6.78;3.20;;;;;;;13.58;27.11;96412.56;5034153;28;20079;-30
2023/04/07 04:14:54;;;;;;;7.07;3.10;;;;;;;13.49;27.46;96421.44;5034178;28;20082;-29
2023/04/07 04:17:20;;;;;;;7.50;3.03;;;;;;;13.46;27.61;96421.59;5034137;28;20539;-31
2023/04/07 04:19:45;;;;;;;5.68;2.95;;;;;;;13.51;27.46;96418.28;5041887;28;20424;-29
2023/04/07 04:22:10;;;;;;;4.93;2.78;;;;;;;13.36;27.57;96422.72;5047345;28;20028;-29
2023/04/07 04:24:36;;;;;;;6.50;2.47;;;;;;;13.61;27.59;96417.88;5033407;28;20116;-30
2023/04/07 04:27:01;;;;;;;6.82;2.90;;;;;;;13.62;27.63;96413.94;5034526;28;20108;-31
2023/04/07 04:29:27;;;;;;;5.00;2.90;;;;;;;13.54;27.86;96415.44;5032196;28;20041;-30
2023/04/07 04:31:52;;;;;;;7.70;2.70;;;;;;;13.40;27.91;96420.63;5033969;28;20075;-30
2023/04/07 04:34:18;;;;;;;4.88;2.53;;;;;;;13.65;27.67;96415.78;5037159;28;20075;-29
2023/04/07 04:36:43;;;;;;;6.68;3.30;;;;;;;13.57;27.77;96411.81;5037261;28;20095;-29
2023/04/07 04:39:09;;;;;;;6.60;2.40;;;;;;;13.68;28.00;96414.13;5048061;28;20033;-29
2023/04/07 04:41:34;;;;;;;6.22;2.65;;;;;;;13.65;27.47;96417.75;5033525;28;20032;-30
2023/04/07 04:44:00;;;;;;;6.10;2.70;;;;;;;13.46;27.79;96427.03;5034199;28;20045;-29
2023/04/07 04:46:25;;;;;;;6.10;3.15;;;;;;;13.60;28.03;96423.75;5033835;28;20083;-29
2023/04/07 04:48:52;;;;;;;5.68;2.78;;;;;;;13.71;28.31;96429.59;5033931;28;20022;-30
2023/04/07 04:51:18;;;;;;;5.13;2.63;;;;;;;13.63;27.85;96426.38;5039646;28;20013;-30
2023/04/07 04:53:43;;;;;;;5.20;2.92;;;;;;;13.62;28.29;96424.09;5038164;28;20096;-30
2023/04/07 04:56:09;;;;;;;5.53;2.92;;;;;;;13.70;27.93;96430.03;5032548;28;20017;-29
2023/04/07 04:58:34;;;;;;;6.15;3.00;;;;;;;13.65;28.21;96423.97;5033760;28;20025;-30
2023/04/07 05:01:00;;;;;;;6.03;2.80;;;;;;;13.61;28.43;96425.28;5033265;28;20037;-29
2023/04/07 05:03:27;;;;;;;5.35;2.70;;;;;;;13.66;28.63;96427.44;5041212;28;20048;-30
2023/04/07 05:05:52;;;;;;;5.05;2.75;;;;;;;13.41;28.45;96433.03;5040121;28;20025;-29
2023/04/07 05:08:18;;;;;;;7.47;2.92;;;;;;;13.66;28.27;96433.66;5040287;28;20021;-30
2023/04/07 05:10:45;;;;;;;6.15;2.92;;;;;;;13.56;28.59;96431.34;5041069;28;20048;-29
2023/04/07 05:13:10;;;;;;;5.60;2.97;;;;;;;13.49;28.67;96437.03;5033354;28;20025;-30
2023/04/07 05:15:35;;;;;;;5.78;2.50;;;;;;;13.59;28.85;96435.91;5033238;28;20392;-30
2023/04/07 05:18:01;;;;;;;5.68;2.80;;;;;;;13.47;28.73;96434.00;5035325;28;20017;-30
2023/04/07 05:20:26;;;;;;;10.23;3.45;;;;;;;13.69;28.73;96445.63;5037770;28;20025;-29
2023/04/07 05:22:52;;;;;;;5.82;3.13;;;;;;;13.79;28.42;96441.75;5038746;28;20099;-29
2023/04/07 05:25:17;;;;;;;8.40;4.10;;;;;;;13.58;29.16;96439.81;5042827;28;20464;-29
2023/04/07 05:27:43;;;;;;;8.50;3.67;;;;;;;13.61;28.84;96444.38;5044055;28;20017;-31
2023/04/07 05:30:09;;;;;;;8.20;3.95;;;;;;;13.64;29.31;96449.69;5037026;28;20031;-29
2023/04/07 05:32:34;;;;;;;9.73;4.03;;;;;;;13.50;29.26;96444.00;5037067;28;20033;-29
2023/04/07 05:35:00;;;;;;;9.10;3.78;;;;;;;13.67;28.64;96448.03;5037112;28;20031;-29
2023/04/07 05:37:25;;;;;;;6.88;3.25;;;;;;;13.65;28.61;96458.63;5044279;28;20030;-29
2023/04/07 05:39:51;;;;;;;6.30;3.50;;;;;;;13.71;28.44;96453.38;5051249;28;20029;-30
2023/04/07 05:42:16;;;;;;;6.30;3.35;;;;;;;13.49;29.11;96461.53;5038119;28;20500;-30
2023/04/07 05:44:42;;;;;;;7.45;2.97;;;;;;;13.51;29.46;96465.34;5041429;28;20443;-30
2023/04/07 05:47:08;;;;;;;7.50;3.35;;;;;;;13.39;29.32;96470.88;5037037;28;20100;-30
2023/04/07 05:49:36;;;;;;;5.63;2.72;;;;;;;13.42;30.05;96461.81;5036786;28;20462;-29
2023/04/07 05:52:04;;;;;;;8.18;3.28;;;;;;;13.32;29.64;96462.97;5036296;28;20021;-29
2023/04/07 05:54:30;;;;;;;5.40;3.20;;;;;;;13.39;29.96;96466.19;5043573;28;20013;-30
2023/04/07 05:56:56;;;;;;;8.95;3.70;;;;;;;13.70;29.85;96473.66;5049520;28;20528;-29
2023/04/07 05:59:21;;;;;;;6.75;2.67;;;;;;;13.68;29.52;96471.38;5037926;28;20025;-30
2023/04/07 06:01:48;;;;;;;9.90;2.97;;;;;;;13.62;30.02;96470.41;5039853;28;20041;-29
2023/04/07 06:04:13;;;;;;;6.00;3.78;;;;;;;13.51;30.15;96467.31;5039708;28;20048;-30
2023/04/07 06:06:39;;;;;;;4.65;2.78;;;;;;;13.90;29.37;96465.88;5036666;28;20456;-29
2023/04/07 06:09:04;;;;;;;5.07;2.67;;;;;;;13.70;29.35;96470.94;5041625;28;20025;-29
2023/04/07 06:11:30;;;;;;;5.65;3.47;;;;;;;13.80;29.17;96475.97;5037781;28;20021;-29
2023/04/07 06:13:55;;;;;;;7.60;3.10;;;;;;;13.87;29.03;96475.69;5043200;28;20398;-29
2023/04/07 06:16:20;;;;;;;8.00;3.30;;;;;;;14.00;28.67;96479.09;5036099;28;20021;-30
2023/04/07 06:18:46;;;;;;;4.55;2.63;;;;;;;13.73;28.88;96473.50;5036373;28;20404;-29
2023/04/07 06:21:11;;;;;;;3.63;2.58;;;;;;;13.98;28.17;96478.03;5042930;28;20064;-29
2023/04/07 06:23:37;;;;;;;6.95;3.20;;;;;;;13.84;28.92;96467.69;5036059;28;20021;-30
2023/04/07 06:26:03;;;;;;;6.13;2.88;;;;;;;13.69;29.18;96472.91;5043547;28;20030;-31
2023/04/07 06:28:28;;;;;;;9.48;3.25;;;;;;;13.86;29.04;96476.91;5041635;28;20104;-30
2023/04/07 06:30:53;;;;;;;5.28;3.10;;;;;;;13.89;29.16;96470.56;5037584;28;20108;-30
2023/04/07 06:33:24;;;;;;;11.95;3.22;;;;;;;14.07;28.89;96467.19;5035714;28;20021;-29
2023/04/07 06:35:50;;;;;;;6.43;2.80;;;;;;;13.88;29.00;96471.00;5035786;28;20064;-30
2023/04/07 06:38:15;;;;;;;6.97;3.38;;;;;;;14.06;29.19;96476.56;5035754;28;20468;-29
2023/04/07 06:40:40;;;;;;;6.10;3.33;;;;;;;13.80;29.77;96483.41;5035614;28;20397;-30
2023/04/07 06:43:06;;;;;;;5.47;3.05;;;;;;;14.08;29.08;96479.63;5043051;28;20404;-31
2023/04/07 06:45:31;;;;;;;5.88;3.13;;;;;;;14.12;29.14;96476.72;5035729;28;20025;-30
2023/04/07 06:47:57;;;;;;;6.45;3.30;;;;;;;14.08;29.23;96476.13;5035771;28;20025;-29
2023/04/07 06:50:22;;;;;;;7.93;3.40;;;;;;;14.02;28.92;96473.97;5035845;28;20040;-30
2023/04/07 06:52:48;;;;;;;7.13;3.65;;;;;;;14.03;28.80;96470.03;5042908;28;20018;-30
2023/04/07 06:55:13;;;;;;;5.15;3.03;;;;;;;14.19;28.93;96479.19;5042659;28;20074;-31
2023/04/07 06:57:39;;;;;;;6.45;3.00;;;;;;;14.11;29.25;96475.22;5037026;28;20025;-30
2023/04/07 07:00:06;;;;;;;5.68;3.40;;;;;;;14.12;29.80;96479.47;5035791;28;20026;-30
2023/04/07 07:02:32;;;;;;;7.88;3.03;;;;;;;14.12;29.87;96479.47;5042151;28;20485;-29
2023/04/07 07:04:58;;;;;;;8.50;3.45;;;;;;;14.15;29.98;96475.84;5035256;28;20071;-29
2023/04/07 07:07:24;;;;;;;5.78;3.00;;;;;;;14.10;30.45;96477.19;5035083;28;20037;-30
2023/04/07 07:09:50;;;;;;;6.35;3.42;;;;;;;14.06;30.83;96475.81;5028110;28;20022;-30
2023/04/07 07:12:16;;;;;;;8.38;3.78;;;;;;;14.19;30.77;96473.75;5042165;28;20481;-29
2023/04/07 07:14:42;;;;;;;6.78;3.28;;;;;;;14.29;30.25;96481.50;5035067;28;20104;-31
2023/04/07 07:17:08;;;;;;;4.75;3.13;;;;;;;14.34;30.55;96480.19;5035182;28;20152;-29
2023/04/07 07:19:33;;;;;;;7.63;3.78;;;;;;;14.47;30.21;96486.28;5034550;28;20029;-30
2023/04/07 07:22:00;;;;;;;6.97;3.60;;;;;;;14.09;30.97;96492.03;5042672;28;20029;-31
2023/04/07 07:24:25;;;;;;;4.65;2.72;;;;;;;14.06;30.81;96498.38;5040928;28;20432;-30
2023/04/07 07:26:51;;;;;;;5.95;3.30;;;;;;;13.98;31.33;96494.38;5036849;28;20025;-31
2023/04/07 07:29:16;;;;;;;9.70;3.30;;;;;;;14.16;31.01;96488.28;5041249;28;20030;-29
2023/04/07 07:31:42;;;;;;;6.75;3.28;;;;;;;14.35;30.88;96490.63;5034449;28;20021;-30
2023/04/07 07:34:07;;;;;;;7.40;3.08;;;;;;;14.32;31.04;96490.78;5035489;28;20026;-29
2023/04/07 07:36:33;;;;;;;5.35;3.15;;;;;;;14.29;31.43;96499.84;5034788;28;20018;-29
2023/04/07 07:38:58;;;;;;;7.50;3.15;;;;;;;14.07;31.95;96494.44;5042463;28;20135;-30
2023/04/07 07:41:25;;;;;;;6.43;3.53;;;;;;;14.38;31.36;96491.69;5041206;28;20025;-29
2023/04/07 07:43:50;;;;;;;6.07;3.08;;;;;;;14.30;31.64;96496.66;5034767;28;20358;-30
2023/04/07 07:46:16;;;;;;;8.00;3.33;;;;;;;14.27;31.92;96504.97;5034736;28;20087;-29
2023/04/07 07:48:41;;;;;;;8.27;3.13;;;;;;;14.62;31.11;96503.63;5034472;28;20351;-30
2023/04/07 07:51:07;;;;;;;5.55;2.92;;;;;;;14.64;31.28;96500.44;5034739;28;20362;-29
2023/04/07 07:53:32;;;;;;;5.47;3.17;;;;;;;14.39;31.21;96490.47;5029838;28;20025;-30
2023/04/07 07:55:57;;;;;;;4.90;3.47;;;;;;;14.26;31.64;96496.03;5037643;28;20361;-30
2023/04/07 07:58:23;;;;;;;5.82;3.20;;;;;;;14.30;31.52;96493.19;5034207;28;20442;-31
2023/04/07 08:00:48;;;;;;;5.05;3.10;;;;;;;14.33;31.61;96493.06;5041252;28;20021;-30
2023/04/07 08:03:15;;;;;;;5.47;3.22;;;;;;;14.74;31.09;96486.34;5032947;28;20024;-30
2023/04/07 08:05:41;;;;;;;6.60;2.95;;;;;;;14.64;31.46;96495.75;5041120;28;20029;-29
2023/04/07 08:08:07;;;;;;;4.63;2.80;;;;;;;14.50;31.66;96488.13;5034357;28;20480;-29
2023/04/07 08:10:32;;;;;;;6.88;3.15;;;;;;;14.61;31.47;96491.19;5041224;28;20029;-30
2023/04/07 08:12:58;;;;;;;6.20;2.92;;;;;;;14.71;31.55;96487.25;5037814;28;20103;-31
2023/04/07 08:15:23;;;;;;;6.35;2.92;;;;;;;14.65;31.36;96491.81;5037430;28;20021;-30
2023/04/07 08:17:49;;;;;;;6.53;3.03;;;;;;;14.79;31.67;96487.75;5041351;28;20051;-30
2023/04/07 08:20:15;;;;;;;5.70;3.28;;;;;;;14.42;31.88;96489.63;5038967;28;20020;-30
2023/04/07 08:22:41;;;;;;;4.78;2.80;;;;;;;14.82;31.38;96478.66;5036112;28;20446;-31
2023/04/07 08:25:07;;;;;;;4.78;2.88;;;;;;;15.02;31.29;96486.41;5033774;28;20022;-29
2023/04/07 08:27:33;;;;;;;4.10;2.80;;;;;;;15.23;31.50;96477.31;5041012;28;20032;-30
2023/04/07 08:30:01;;;;;;;6.07;2.88;;;;;;;15.00;32.14;96475.94;5041396;28;20380;-30
2023/04/07 08:32:37;;;;;;;5.45;3.38;;;;;;;14.99;32.22;96468.94;5033791;28;20022;-30
2023/04/07 08:35:03;;;;;;;7.75;3.17;;;;;;;15.06;32.48;96473.38;5033771;28;20029;-30
2023/04/07 08:37:29;;;;;;;7.03;4.18;;;;;;;15.17;32.18;96472.91;5033607;28;20095;-31
2023/04/07 08:39:55;;;;;;;6.05;3.33;;;;;;;15.20;32.47;96480.22;5040938;28;20469;-32
2023/04/07 08:42:26;;;;;;;6.35;3.22;;;;;;;15.16;31.99;96474.88;5036437;28;20087;-30
2023/04/07 08:44:55;;;;;;;5.53;3.03;;;;;;;15.11;31.38;96475.47;5037011;28;20112;-30
2023/04/07 08:47:22;;;;;;;6.35;3.40;;;;;;;14.98;31.62;96480.31;5034291;28;20021;-30
2023/04/07 08:49:51;;;;;;;8.18;3.10;;;;;;;15.23;31.43;96474.56;5033575;28;20024;-29
2023/04/07 08:52:21;;;;;;;5.32;3.42;;;;;;;15.10;31.56;96474.72;5036032;28;20017;-30
2023/04/07 08:54:48;;;;;;;5.22;3.20;;;;;;;15.01;31.41;96474.72;5037461;28;20100;-30
2023/04/07 08:57:15;;;;;;;7.10;3.40;;;;;;;15.32;31.16;96469.13;5034347;28;20469;-30
2023/04/07 08:59:44;;;;;;;7.95;3.88;;;;;;;15.29;32.00;96475.50;5044653;28;20025;-33
2023/04/07 09:02:09;;;;;;;8.05;3.95;;;;;;;15.33;31.59;96475.34;5037574;28;20041;-30
2023/04/07 09:04:35;;;;;;;10.20;3.58;;;;;;;15.14;31.08;96474.56;5037832;28;20036;-30
2023/04/07 09:07:01;;;;;;;10.15;3.80;;;;;;;15.21;30.71;96473.50;5037444;28;20388;-29
2023/04/07 09:09:27;;;;;;;6.15;3.47;;;;;;;15.24;30.34;96476.09;5037805;28;20025;-30
2023/04/07 09:11:52;;;;;;;7.65;3.53;;;;;;;15.31;30.91;96470.34;5037312;28;20124;-30
2023/04/07 09:14:19;;;;;;;9.80;3.33;;;;;;;15.20;31.06;96472.78;5037206;28;20025;-30
2023/04/07 09:16:46;;;;;;;7.90;3.95;;;;;;;15.45;30.84;96466.25;5044773;28;21160;-31
2023/04/07 09:19:11;;;;;;;8.20;3.13;;;;;;;15.41;30.71;96469.13;5044401;28;20017;-30
2023/04/07 09:21:50;;;;;;;6.10;3.03;;;;;;;15.38;30.67;96470.03;5044688;28;20087;-30
2023/04/07 09:24:25;;;;;;;5.55;3.17;;;;;;;15.35;30.63;96460.00;5031637;28;20021;-30
2023/04/07 09:27:07;;;;;;;6.90;3.60;;;;;;;15.38;30.51;96463.78;5037373;28;20021;-30
2023/04/07 09:29:32;;;;;;;7.25;3.17;;;;;;;15.33;30.11;96461.69;5037141;28;20025;-29
2023/04/07 09:32:01;;;;;;;8.32;3.58;;;;;;;15.40;29.94;96456.66;5044141;28;20025;-30
2023/04/07 09:34:32;;;;;;;8.90;3.90;;;;;;;15.41;29.97;96455.44;5041851;28;20028;-29
2023/04/07 09:36:58;;;;;;;8.52;4.13;;;;;;;15.38;30.46;96452.88;5038564;28;20071;-30
2023/04/07 09:39:25;;;;;;;8.82;3.92;;;;;;;15.43;29.87;96447.56;5044181;28;20112;-30
2023/04/07 09:41:51;;;;;;;8.65;4.13;;;;;;;15.51;29.73;96445.25;5036796;28;20083;-29
2023/04/07 09:44:20;;;;;;;10.20;3.63;;;;;;;15.46;30.61;96454.81;5053111;28;20029;-30
2023/04/07 09:46:57;;;;;;;9.43;3.78;;;;;;;15.53;30.47;96436.59;5041585;28;20028;-30
2023/04/07 09:49:26;;;;;;;9.95;4.57;;;;;;;15.53;30.51;96440.09;5037175;28;20055;-30
2023/04/07 09:52:06;;;;;;;10.32;4.50;;;;;;;15.50;30.44;96438.28;5036835;28;20060;-31
2023/04/07 09:54:36;;;;;;;11.30;4.43;;;;;;;15.58;30.28;96436.03;5044594;28;20162;-31
2023/04/07 09:57:03;;;;;;;10.18;4.80;;;;;;;15.65;30.27;96433.72;5036897;28;20028;-29
2023/04/07 09:59:30;;;;;;;9.43;4.00;;;;;;;15.57;30.02;96434.50;5036619;28;20116;-30
2023/04/07 10:01:56;;;;;;;9.93;4.68;;;;;;;15.65;30.07;96424.75;5048090;28;20052;-31
2023/04/07 10:04:23;;;;;;;7.90;4.22;;;;;;;15.58;29.72;96425.81;5044018;28;20550;-30
2023/04/07 10:06:50;;;;;;;9.65;3.92;;;;;;;15.67;29.76;96427.81;5036392;28;20025;-30
2023/04/07 10:09:16;;;;;;;8.65;3.70;;;;;;;15.68;29.76;96432.06;5036442;28;20021;-31
2023/04/07 10:11:43;;;;;;;9.00;3.80;;;;;;;15.70;29.45;96429.63;5036220;28;20029;-30
2023/04/07 10:14:12;;;;;;;8.43;3.90;;;;;;;15.76;29.72;96423.06;5036231;28;20044;-30
2023/04/07 10:16:37;;;;;;;6.85;3.35;;;;;;;15.67;29.85;96425.81;5036719;28;20112;-31
2023/04/07 10:19:04;;;;;;;7.15;3.15;;;;;;;15.67;29.15;96422.34;5042962;28;20057;-30
2023/04/07 10:21:35;;;;;;;5.90;3.30;;;;;;;15.69;29.06;96433.56;5036195;28;20029;-29
2023/04/07 10:24:23;;;;;;;6.88;3.50;;;;;;;15.79;29.18;96427.63;5043011;28;20056;-30
2023/04/07 10:27:01;;;;;;;11.45;4.47;;;;;;;15.81;29.62;96427.16;5036032;28;20029;-29
2023/04/07 10:29:30;;;;;;;7.78;3.97;;;;;;;15.84;29.65;96420.75;5036150;28;20483;-32
2023/04/07 10:31:58;;;;;;;12.80;6.53;;;;;;;15.87;29.82;96419.81;5036183;28;20183;-30
2023/04/07 10:34:48;;;;;;;11.45;5.10;;;;;;;15.88;29.65;96409.66;5043245;28;20378;-32
2023/04/07 10:37:19;;;;;;;9.27;4.75;;;;;;;15.79;29.89;96416.69;5050142;28;20022;-33
2023/04/07 10:39:45;;;;;;;7.78;3.85;;;;;;;15.78;30.27;96408.94;5035965;28;20033;-29
2023/04/07 10:42:36;;;;;;;8.13;4.50;;;;;;;15.90;29.89;96399.00;5035729;28;20029;-31
2023/04/07 10:45:03;;;;;;;9.85;4.38;;;;;;;15.88;29.82;96399.47;5042694;28;20052;-30
2023/04/07 10:47:29;;;;;;;7.88;3.97;;;;;;;15.95;29.48;96407.34;5035786;28;20025;-30
2023/04/07 10:50:20;;;;;;;8.75;3.67;;;;;;;15.82;29.90;96400.56;5042127;28;20377;-30
2023/04/07 10:52:46;;;;;;;9.50;4.22;;;;;;;15.90;29.70;96405.25;5034772;28;20017;-30
2023/04/07 10:55:31;;;;;;;7.75;4.15;;;;;;;15.94;29.75;96394.91;5034664;28;20022;-29
2023/04/07 10:58:16;;;;;;;8.10;3.85;;;;;;;15.97;29.74;96393.97;5035257;28;20080;-30
2023/04/07 11:01:03;;;;;;;6.50;3.80;;;;;;;15.99;29.43;96391.53;5028854;28;20021;-30
2023/04/07 11:03:30;;;;;;;7.93;3.70;;;;;;;16.03;29.56;96396.84;5042991;28;20033;-31
2023/04/07 11:06:05;;;;;;;7.63;3.83;;;;;;;16.02;29.56;96390.59;5039960;28;20045;-29
2023/04/07 11:08:45;;;;;;;7.07;3.40;;;;;;;15.99;29.68;96399.72;5037435;28;20019;-29
2023/04/07 11:11:13;;;;;;;6.30;3.42;;;;;;;16.05;29.43;96395.16;5039637;28;20045;-29
2023/04/07 11:13:42;;;;;;;8.55;3.42;;;;;;;16.02;29.57;96396.06;5035138;28;20393;-30
2023/04/07 11:16:09;;;;;;;8.35;3.80;;;;;;;16.12;29.75;96394.03;5034513;28;20021;-30
2023/04/07 11:18:38;;;;;;;7.60;4.28;;;;;;;16.09;29.49;96400.44;5035078;28;20469;-29
2023/04/07 11:21:05;;;;;;;5.75;3.42;;;;;;;16.15;29.64;96404.06;5028327;28;20420;-29
2023/04/07 11:23:42;;;;;;;7.57;3.67;;;;;;;16.11;29.73;96398.00;5042169;28;20029;-29
2023/04/07 11:26:10;;;;;;;8.27;4.15;;;;;;;16.10;29.79;96397.25;5027976;28;20026;-31
2023/04/07 11:28:46;;;;;;;9.27;4.10;;;;;;;16.07;29.96;96395.44;5034855;28;20022;-31
2023/04/07 11:31:32;;;;;;;8.52;3.80;;;;;;;16.11;29.70;96390.56;5027979;28;20013;-29
2023/04/07 11:34:00;;;;;;;8.38;3.20;;;;;;;16.23;29.90;96404.47;5035124;28;20029;-30
2023/04/07 11:36:31;;;;;;;10.77;4.25;;;;;;;16.24;29.83;96397.78;5042039;28;20026;-30